< < Back
Terminal Aerodrome Forecast


Current Version              Previous Versions:   1  2  3  4  5  6  7  8  9  

Terminal Aerodrome Forecast

280
FTUS42 KCHS 180500
TAFCHS
TAF
KCHS 180524Z 1806/1906 VRB03KT P6SM SCT250=



Latest METAR

591
SAUS80 KWBC 191000 CCA
MTRCHS
METAR KCHS 190956Z 00000KT 9SM FEW250 07/06 A3008 RMK AO2 SLP185
T00670061


USA.gov is the U.S. government's official web portal to all federal, state and local government web resources and services.